createdAt,value
2018-09-26T00:48:07.691Z,97031.86
2018-09-26T00:53:11.774Z,97030.51
2018-09-26T02:35:52.350Z,96934.64
2018-09-26T02:40:55.670Z,96919.41
2018-09-26T03:49:16.258Z,96910.18
2018-09-26T03:54:19.585Z,96903.06
2018-09-26T03:59:22.902Z,96905.30
2018-09-26T04:33:12.077Z,96890.79
2018-09-26T04:38:40.677Z,96884.45
2018-09-26T04:43:43.986Z,96877.02
2018-09-26T04:48:47.307Z,96878.80
2018-09-26T04:53:50.619Z,96878.22
2018-09-26T04:58:54.000Z,96874.71
2018-09-26T05:03:57.311Z,96878.97
2018-09-26T05:09:00.636Z,96897.59
2018-09-26T05:14:03.954Z,96910.28
2018-09-26T05:19:07.287Z,96914.53
2018-09-26T05:24:10.609Z,96905.22
2018-09-26T05:29:13.926Z,96915.05
2018-09-26T05:34:17.239Z,96917.24
2018-09-26T05:39:20.554Z,96928.11
2018-09-26T05:44:23.867Z,96929.23
2018-09-26T05:49:27.189Z,96933.39
2018-09-26T05:54:30.905Z,96940.12
2018-09-26T05:59:34.567Z,96937.00
2018-09-26T06:04:37.855Z,96934.32
2018-09-26T06:09:41.179Z,96933.52
2018-09-26T06:14:44.494Z,96923.63
2018-09-26T06:19:47.811Z,96942.61
2018-09-26T06:24:51.170Z,96941.51
2018-09-26T06:29:54.457Z,96953.88
2018-09-26T07:03:43.195Z,96962.72
2018-09-26T07:08:46.511Z,96958.13
2018-09-26T07:13:49.826Z,96956.54
2018-09-26T08:04:53.664Z,96945.23
2018-09-26T08:09:57.767Z,96934.05
2018-09-26T08:15:01.091Z,96941.95
2018-09-26T09:05:54.926Z,96954.75
2018-09-26T09:10:58.239Z,96944.96
2018-09-26T10:02:02.755Z,96912.52
2018-09-26T10:07:06.079Z,96908.75
2018-09-26T10:12:09.402Z,96914.30
2018-09-26T11:03:11.803Z,96908.88
2018-09-26T11:08:15.191Z,96910.45
2018-09-26T11:13:18.563Z,96915.78
2018-09-26T12:04:23.907Z,96877.70
2018-09-26T12:09:27.307Z,96864.16
2018-09-26T12:14:30.652Z,96865.20
2018-09-26T13:05:33.415Z,96843.67
2018-09-26T13:10:36.748Z,96837.79
2018-09-26T14:01:42.244Z,96815.63
2018-09-26T14:06:45.566Z,96811.99
2018-09-26T14:11:48.954Z,96799.78
2018-09-26T14:45:53.555Z,96776.98
2018-09-26T14:50:56.839Z,96773.85
2018-09-26T14:56:00.178Z,96783.70
2018-09-26T15:35:34.571Z,96753.77
2018-09-26T15:40:37.979Z,96746.42
2018-09-26T15:45:41.246Z,96754.00
2018-09-26T15:50:44.573Z,96746.67
2018-09-26T15:55:47.903Z,96750.25
2018-09-26T16:00:51.230Z,96736.55
2018-09-26T16:05:54.567Z,96748.33
2018-09-26T16:10:57.914Z,96754.45
2018-09-26T16:16:01.243Z,96756.55
2018-09-26T16:21:04.567Z,96757.77
2018-09-26T16:26:07.959Z,96758.19
2018-09-26T16:31:11.259Z,96758.25
2018-09-26T16:36:14.608Z,96750.05
2018-09-26T16:41:17.946Z,96753.42
2018-09-26T16:46:21.303Z,96756.99
2018-09-26T16:51:24.626Z,96762.54
2018-09-26T16:56:27.956Z,96768.38
2018-09-26T17:01:32.038Z,96768.28
2018-09-26T17:06:37.378Z,96768.73
2018-09-26T17:11:41.025Z,96770.41
2018-09-26T17:16:44.637Z,96764.94
2018-09-26T17:21:48.708Z,96766.08
2018-09-26T17:26:52.343Z,96775.84
2018-09-26T17:31:56.229Z,96773.21
2018-09-26T17:36:59.606Z,96777.54
2018-09-26T17:42:03.441Z,96781.98
2018-09-26T17:47:11.214Z,96796.55
2018-09-26T17:52:14.606Z,96785.82
2018-09-26T17:57:23.033Z,96794.28
2018-09-26T18:02:26.391Z,96798.03
2018-09-26T18:07:39.347Z,96798.40
2018-09-26T18:12:42.687Z,96800.80
2018-09-26T18:17:46.013Z,96797.63
2018-09-26T18:22:49.347Z,96805.89
2018-09-26T18:27:52.707Z,96801.50
2018-09-26T18:32:56.019Z,96804.73
2018-09-26T18:37:59.347Z,96813.02
2018-09-26T18:43:02.685Z,96820.45
2018-09-26T18:48:06.011Z,96835.89
2018-09-26T18:53:09.427Z,96831.17
2018-09-26T18:58:25.031Z,96836.80
2018-09-26T19:03:28.351Z,96842.33
2018-09-26T19:08:31.857Z,96845.69
2018-09-26T19:13:35.208Z,96853.20
2018-09-26T19:18:38.537Z,96859.11
2018-09-26T19:23:42.748Z,96849.59
2018-09-26T19:28:46.134Z,96844.47
2018-09-26T19:33:49.460Z,96840.95
2018-09-26T19:38:53.622Z,96854.11
2018-09-26T19:43:57.009Z,96855.12
2018-09-26T19:49:00.288Z,96865.23
2018-09-26T19:54:03.611Z,96867.86
2018-09-26T19:59:06.944Z,96867.16
2018-09-26T20:04:10.283Z,96870.22
2018-09-26T20:09:13.616Z,96869.22
2018-09-26T20:14:16.949Z,96871.27
2018-09-26T20:19:20.287Z,96860.80
2018-09-26T20:24:23.620Z,96864.52
2018-09-26T20:29:27.068Z,96863.08
2018-09-26T20:34:30.318Z,96856.86
2018-09-26T20:39:33.650Z,96856.53
2018-09-26T20:44:36.994Z,96865.47
2018-09-26T20:49:40.322Z,96863.45
2018-09-26T20:54:43.651Z,96867.47
2018-09-26T20:59:46.990Z,96870.36
2018-09-26T21:04:50.315Z,96866.98
2018-09-26T21:09:53.644Z,96861.34
2018-09-26T21:14:56.973Z,96852.56
2018-09-26T21:20:00.298Z,96848.27
2018-09-26T21:25:03.632Z,96846.54
2018-09-26T21:30:06.964Z,96836.88
2018-09-26T21:35:10.293Z,96838.63
2018-09-26T21:40:13.630Z,96839.44
2018-09-26T21:45:16.959Z,96836.66
2018-09-26T21:50:20.280Z,96834.16
2018-09-26T21:55:23.607Z,96837.98
2018-09-26T22:00:26.994Z,96834.14
2018-09-26T22:05:30.359Z,96833.16
2018-09-26T22:10:34.476Z,96827.08
2018-09-26T22:15:37.859Z,96829.78
2018-09-26T22:20:41.571Z,96819.69
2018-09-26T22:25:45.194Z,96827.36
2018-09-26T22:30:48.530Z,96826.44
2018-09-26T22:35:51.863Z,96823.37
2018-09-26T22:40:55.198Z,96820.05
2018-09-26T22:45:58.519Z,96816.72
2018-09-26T22:51:01.850Z,96812.21
2018-09-26T22:56:05.177Z,96805.36
2018-09-26T23:01:08.509Z,96804.12
2018-09-26T23:06:11.846Z,96794.70
2018-09-26T23:11:15.174Z,96790.60
